sensor_id;sensor_type;location;lat;lon;timestamp;P1;durP1;ratioP1;P2;durP2;ratioP2
10410;SDS011;5251;52.112;8.606;2023-07-31T00:01:19;2.55;;;1.20;;
10410;SDS011;5251;52.112;8.606;2023-07-31T00:03:45;1.70;;;1.27;;
10410;SDS011;5251;52.112;8.606;2023-07-31T00:06:11;3.60;;;1.30;;
10410;SDS011;5251;52.112;8.606;2023-07-31T00:08:37;2.15;;;1.48;;
10410;SDS011;5251;52.112;8.606;2023-07-31T00:11:03;1.63;;;1.23;;
10410;SDS011;5251;52.112;8.606;2023-07-31T00:13:28;1.35;;;1.00;;
10410;SDS011;5251;52.112;8.606;2023-07-31T00:15:54;1.00;;;1.00;;
10410;SDS011;5251;52.112;8.606;2023-07-31T00:18:20;3.05;;;1.10;;
10410;SDS011;5251;52.112;8.606;2023-07-31T00:20:45;0.80;;;0.80;;
10410;SDS011;5251;52.112;8.606;2023-07-31T00:23:11;1.35;;;1.20;;
10410;SDS011;5251;52.112;8.606;2023-07-31T00:25:37;2.03;;;1.00;;
10410;SDS011;5251;52.112;8.606;2023-07-31T00:28:02;1.10;;;1.00;;
10410;SDS011;5251;52.112;8.606;2023-07-31T00:30:28;1.23;;;1.13;;
10410;SDS011;5251;52.112;8.606;2023-07-31T00:32:53;1.10;;;1.00;;
10410;SDS011;5251;52.112;8.606;2023-07-31T00:35:19;1.27;;;1.08;;
10410;SDS011;5251;52.112;8.606;2023-07-31T00:37:45;1.20;;;1.10;;
10410;SDS011;5251;52.112;8.606;2023-07-31T00:40:10;1.75;;;1.08;;
10410;SDS011;5251;52.112;8.606;2023-07-31T00:42:36;1.02;;;1.02;;
10410;SDS011;5251;52.112;8.606;2023-07-31T00:45:01;2.03;;;1.10;;
10410;SDS011;5251;52.112;8.606;2023-07-31T00:47:27;1.27;;;1.17;;
10410;SDS011;5251;52.112;8.606;2023-07-31T00:49:53;1.60;;;1.20;;
10410;SDS011;5251;52.112;8.606;2023-07-31T00:52:19;1.50;;;1.40;;
10410;SDS011;5251;52.112;8.606;2023-07-31T00:54:45;1.60;;;1.50;;
10410;SDS011;5251;52.112;8.606;2023-07-31T00:57:11;1.65;;;1.33;;
10410;SDS011;5251;52.112;8.606;2023-07-31T00:59:36;1.50;;;1.40;;
10410;SDS011;5251;52.112;8.606;2023-07-31T01:02:02;1.92;;;1.40;;
10410;SDS011;5251;52.112;8.606;2023-07-31T01:04:28;3.15;;;2.00;;
10410;SDS011;5251;52.112;8.606;2023-07-31T01:09:49;1.73;;;1.63;;
10410;SDS011;5251;52.112;8.606;2023-07-31T01:12:24;2.85;;;1.95;;
10410;SDS011;5251;52.112;8.606;2023-07-31T01:17:31;1.83;;;1.73;;
10410;SDS011;5251;52.112;8.606;2023-07-31T01:19:58;2.00;;;1.90;;
10410;SDS011;5251;52.112;8.606;2023-07-31T01:28:10;1.80;;;1.70;;
10410;SDS011;5251;52.112;8.606;2023-07-31T01:30:41;1.70;;;1.60;;
10410;SDS011;5251;52.112;8.606;2023-07-31T01:33:11;1.50;;;1.40;;
10410;SDS011;5251;52.112;8.606;2023-07-31T01:35:37;2.47;;;1.70;;
10410;SDS011;5251;52.112;8.606;2023-07-31T01:38:04;1.80;;;1.40;;
10410;SDS011;5251;52.112;8.606;2023-07-31T01:40:30;1.70;;;1.60;;
10410;SDS011;5251;52.112;8.606;2023-07-31T01:42:55;2.13;;;1.80;;
10410;SDS011;5251;52.112;8.606;2023-07-31T01:45:21;1.60;;;1.50;;
10410;SDS011;5251;52.112;8.606;2023-07-31T01:47:46;1.60;;;1.42;;
10410;SDS011;5251;52.112;8.606;2023-07-31T01:50:12;1.60;;;1.50;;
10410;SDS011;5251;52.112;8.606;2023-07-31T01:52:37;1.90;;;1.45;;
10410;SDS011;5251;52.112;8.606;2023-07-31T01:55:03;1.50;;;1.40;;
10410;SDS011;5251;52.112;8.606;2023-07-31T01:57:29;1.60;;;1.50;;
10410;SDS011;5251;52.112;8.606;2023-07-31T01:59:55;2.70;;;1.88;;
10410;SDS011;5251;52.112;8.606;2023-07-31T02:02:21;1.92;;;1.70;;
10410;SDS011;5251;52.112;8.606;2023-07-31T02:04:48;2.35;;;1.80;;
10410;SDS011;5251;52.112;8.606;2023-07-31T02:07:13;2.17;;;1.60;;
10410;SDS011;5251;52.112;8.606;2023-07-31T02:09:39;2.75;;;1.80;;
10410;SDS011;5251;52.112;8.606;2023-07-31T02:12:05;2.28;;;1.90;;
10410;SDS011;5251;52.112;8.606;2023-07-31T02:14:33;1.95;;;1.50;;
10410;SDS011;5251;52.112;8.606;2023-07-31T02:16:59;3.35;;;1.58;;
10410;SDS011;5251;52.112;8.606;2023-07-31T02:19:24;4.95;;;1.80;;
10410;SDS011;5251;52.112;8.606;2023-07-31T02:21:50;1.48;;;1.38;;
10410;SDS011;5251;52.112;8.606;2023-07-31T02:24:16;2.30;;;1.50;;
10410;SDS011;5251;52.112;8.606;2023-07-31T02:26:41;2.35;;;1.40;;
10410;SDS011;5251;52.112;8.606;2023-07-31T02:29:07;1.83;;;1.60;;
10410;SDS011;5251;52.112;8.606;2023-07-31T02:31:33;2.80;;;1.70;;
10410;SDS011;5251;52.112;8.606;2023-07-31T02:33:59;2.45;;;1.48;;
10410;SDS011;5251;52.112;8.606;2023-07-31T02:36:24;2.30;;;1.40;;
10410;SDS011;5251;52.112;8.606;2023-07-31T02:38:50;2.17;;;1.63;;
10410;SDS011;5251;52.112;8.606;2023-07-31T02:41:15;1.40;;;1.30;;
10410;SDS011;5251;52.112;8.606;2023-07-31T02:43:41;1.50;;;1.40;;
10410;SDS011;5251;52.112;8.606;2023-07-31T02:46:07;2.55;;;1.40;;
10410;SDS011;5251;52.112;8.606;2023-07-31T02:48:32;1.27;;;1.13;;
10410;SDS011;5251;52.112;8.606;2023-07-31T02:50:58;1.80;;;1.38;;
10410;SDS011;5251;52.112;8.606;2023-07-31T02:53:24;1.48;;;1.17;;
10410;SDS011;5251;52.112;8.606;2023-07-31T02:55:49;2.97;;;1.23;;
10410;SDS011;5251;52.112;8.606;2023-07-31T02:58:15;2.38;;;1.30;;
10410;SDS011;5251;52.112;8.606;2023-07-31T03:00:44;1.35;;;1.25;;
10410;SDS011;5251;52.112;8.606;2023-07-31T03:03:10;5.18;;;1.20;;
10410;SDS011;5251;52.112;8.606;2023-07-31T03:05:36;2.78;;;1.00;;
10410;SDS011;5251;52.112;8.606;2023-07-31T03:08:01;1.48;;;1.08;;
10410;SDS011;5251;52.112;8.606;2023-07-31T03:10:27;1.00;;;0.88;;
10410;SDS011;5251;52.112;8.606;2023-07-31T03:12:53;1.20;;;1.10;;
10410;SDS011;5251;52.112;8.606;2023-07-31T03:15:18;0.90;;;0.90;;
10410;SDS011;5251;52.112;8.606;2023-07-31T03:17:44;0.90;;;0.90;;
10410;SDS011;5251;52.112;8.606;2023-07-31T03:20:09;1.85;;;0.90;;
10410;SDS011;5251;52.112;8.606;2023-07-31T03:22:35;1.67;;;1.00;;
10410;SDS011;5251;52.112;8.606;2023-07-31T03:25:02;1.02;;;0.93;;
10410;SDS011;5251;52.112;8.606;2023-07-31T03:27:28;0.95;;;0.85;;
10410;SDS011;5251;52.112;8.606;2023-07-31T03:29:53;3.05;;;1.02;;
10410;SDS011;5251;52.112;8.606;2023-07-31T03:32:19;1.85;;;1.00;;
10410;SDS011;5251;52.112;8.606;2023-07-31T03:34:44;1.80;;;1.10;;
10410;SDS011;5251;52.112;8.606;2023-07-31T03:37:10;2.45;;;1.20;;
10410;SDS011;5251;52.112;8.606;2023-07-31T03:39:36;1.60;;;1.40;;
10410;SDS011;5251;52.112;8.606;2023-07-31T03:42:01;2.75;;;1.70;;
10410;SDS011;5251;52.112;8.606;2023-07-31T03:44:27;2.53;;;2.10;;
10410;SDS011;5251;52.112;8.606;2023-07-31T03:46:53;4.43;;;2.22;;
10410;SDS011;5251;52.112;8.606;2023-07-31T03:49:18;4.30;;;2.90;;
10410;SDS011;5251;52.112;8.606;2023-07-31T03:51:44;3.38;;;3.05;;
10410;SDS011;5251;52.112;8.606;2023-07-31T03:54:09;3.95;;;3.53;;
10410;SDS011;5251;52.112;8.606;2023-07-31T03:56:35;5.22;;;4.15;;
10410;SDS011;5251;52.112;8.606;2023-07-31T03:59:01;5.05;;;4.30;;
10410;SDS011;5251;52.112;8.606;2023-07-31T04:01:26;6.60;;;4.78;;
10410;SDS011;5251;52.112;8.606;2023-07-31T04:03:52;7.60;;;5.30;;
10410;SDS011;5251;52.112;8.606;2023-07-31T04:06:17;7.70;;;5.45;;
10410;SDS011;5251;52.112;8.606;2023-07-31T04:08:43;7.07;;;5.57;;
10410;SDS011;5251;52.112;8.606;2023-07-31T04:11:10;14.35;;;6.57;;
10410;SDS011;5251;52.112;8.606;2023-07-31T04:13:36;6.97;;;5.90;;
10410;SDS011;5251;52.112;8.606;2023-07-31T04:16:02;8.50;;;6.18;;
10410;SDS011;5251;52.112;8.606;2023-07-31T04:18:28;8.32;;;6.18;;
10410;SDS011;5251;52.112;8.606;2023-07-31T04:20:55;8.23;;;6.00;;
10410;SDS011;5251;52.112;8.606;2023-07-31T04:23:23;10.70;;;5.90;;
10410;SDS011;5251;52.112;8.606;2023-07-31T04:25:49;7.85;;;5.55;;
10410;SDS011;5251;52.112;8.606;2023-07-31T04:28:14;8.55;;;6.10;;
10410;SDS011;5251;52.112;8.606;2023-07-31T04:30:40;9.43;;;5.55;;
10410;SDS011;5251;52.112;8.606;2023-07-31T04:33:05;8.77;;;6.22;;
10410;SDS011;5251;52.112;8.606;2023-07-31T04:35:31;9.73;;;6.57;;
10410;SDS011;5251;52.112;8.606;2023-07-31T04:37:57;7.38;;;5.82;;
10410;SDS011;5251;52.112;8.606;2023-07-31T04:40:22;10.23;;;6.72;;
10410;SDS011;5251;52.112;8.606;2023-07-31T04:42:48;11.43;;;6.45;;
10410;SDS011;5251;52.112;8.606;2023-07-31T04:45:13;6.18;;;5.50;;
10410;SDS011;5251;52.112;8.606;2023-07-31T04:47:39;10.02;;;6.45;;
10410;SDS011;5251;52.112;8.606;2023-07-31T04:50:05;8.15;;;6.20;;
10410;SDS011;5251;52.112;8.606;2023-07-31T04:52:31;8.88;;;6.15;;
10410;SDS011;5251;52.112;8.606;2023-07-31T04:54:57;10.07;;;6.53;;
10410;SDS011;5251;52.112;8.606;2023-07-31T04:57:22;9.35;;;6.53;;
10410;SDS011;5251;52.112;8.606;2023-07-31T04:59:48;9.88;;;6.05;;
10410;SDS011;5251;52.112;8.606;2023-07-31T05:02:13;10.18;;;6.68;;
10410;SDS011;5251;52.112;8.606;2023-07-31T05:04:39;7.38;;;6.10;;
10410;SDS011;5251;52.112;8.606;2023-07-31T05:07:04;8.85;;;6.75;;
10410;SDS011;5251;52.112;8.606;2023-07-31T05:09:30;9.88;;;6.28;;
10410;SDS011;5251;52.112;8.606;2023-07-31T05:11:56;9.13;;;6.63;;
10410;SDS011;5251;52.112;8.606;2023-07-31T05:14:21;10.18;;;6.18;;
10410;SDS011;5251;52.112;8.606;2023-07-31T05:16:47;7.97;;;6.15;;
10410;SDS011;5251;52.112;8.606;2023-07-31T05:19:12;8.60;;;6.20;;
10410;SDS011;5251;52.112;8.606;2023-07-31T05:21:38;7.53;;;5.80;;
10410;SDS011;5251;52.112;8.606;2023-07-31T05:24:04;9.93;;;6.53;;
10410;SDS011;5251;52.112;8.606;2023-07-31T05:26:30;10.10;;;6.35;;
10410;SDS011;5251;52.112;8.606;2023-07-31T05:28:55;9.00;;;6.25;;
10410;SDS011;5251;52.112;8.606;2023-07-31T05:31:21;9.77;;;6.07;;
10410;SDS011;5251;52.112;8.606;2023-07-31T05:33:47;11.70;;;5.93;;
10410;SDS011;5251;52.112;8.606;2023-07-31T05:36:15;9.32;;;5.75;;
10410;SDS011;5251;52.112;8.606;2023-07-31T05:38:41;10.75;;;5.90;;
10410;SDS011;5251;52.112;8.606;2023-07-31T05:41:08;10.57;;;5.90;;
10410;SDS011;5251;52.112;8.606;2023-07-31T05:43:34;9.60;;;5.95;;
10410;SDS011;5251;52.112;8.606;2023-07-31T05:45:59;9.50;;;5.40;;
10410;SDS011;5251;52.112;8.606;2023-07-31T05:48:26;7.80;;;5.10;;
10410;SDS011;5251;52.112;8.606;2023-07-31T05:50:51;9.18;;;5.80;;
10410;SDS011;5251;52.112;8.606;2023-07-31T05:53:17;10.80;;;5.20;;
10410;SDS011;5251;52.112;8.606;2023-07-31T05:55:43;9.98;;;5.35;;
10410;SDS011;5251;52.112;8.606;2023-07-31T05:58:08;9.18;;;5.10;;
10410;SDS011;5251;52.112;8.606;2023-07-31T06:00:34;9.00;;;5.13;;
10410;SDS011;5251;52.112;8.606;2023-07-31T06:03:00;9.13;;;4.53;;
10410;SDS011;5251;52.112;8.606;2023-07-31T06:05:25;9.38;;;5.53;;
10410;SDS011;5251;52.112;8.606;2023-07-31T06:07:53;8.02;;;4.70;;
10410;SDS011;5251;52.112;8.606;2023-07-31T06:10:18;10.57;;;4.88;;
10410;SDS011;5251;52.112;8.606;2023-07-31T06:12:44;9.93;;;4.50;;
10410;SDS011;5251;52.112;8.606;2023-07-31T06:15:10;7.15;;;4.20;;
10410;SDS011;5251;52.112;8.606;2023-07-31T06:17:36;8.43;;;4.70;;
10410;SDS011;5251;52.112;8.606;2023-07-31T06:20:01;6.35;;;4.50;;
10410;SDS011;5251;52.112;8.606;2023-07-31T06:22:30;7.88;;;4.57;;
10410;SDS011;5251;52.112;8.606;2023-07-31T06:24:55;7.70;;;4.95;;
10410;SDS011;5251;52.112;8.606;2023-07-31T06:27:21;7.20;;;4.43;;
10410;SDS011;5251;52.112;8.606;2023-07-31T06:29:47;6.50;;;4.30;;
10410;SDS011;5251;52.112;8.606;2023-07-31T06:32:13;6.35;;;4.30;;
10410;SDS011;5251;52.112;8.606;2023-07-31T06:34:38;7.45;;;4.07;;
10410;SDS011;5251;52.112;8.606;2023-07-31T06:37:04;7.72;;;4.45;;
10410;SDS011;5251;52.112;8.606;2023-07-31T06:39:30;6.32;;;4.03;;
10410;SDS011;5251;52.112;8.606;2023-07-31T06:41:55;7.85;;;4.30;;
10410;SDS011;5251;52.112;8.606;2023-07-31T06:44:21;7.32;;;4.10;;
10410;SDS011;5251;52.112;8.606;2023-07-31T06:46:46;7.57;;;4.05;;
10410;SDS011;5251;52.112;8.606;2023-07-31T06:49:12;7.93;;;4.30;;
10410;SDS011;5251;52.112;8.606;2023-07-31T06:51:40;8.30;;;4.80;;
10410;SDS011;5251;52.112;8.606;2023-07-31T06:54:05;7.07;;;4.47;;
10410;SDS011;5251;52.112;8.606;2023-07-31T06:56:33;6.93;;;4.07;;
10410;SDS011;5251;52.112;8.606;2023-07-31T06:58:59;9.68;;;4.15;;
10410;SDS011;5251;52.112;8.606;2023-07-31T07:01:25;8.65;;;4.50;;
10410;SDS011;5251;52.112;8.606;2023-07-31T07:03:51;7.50;;;4.10;;
10410;SDS011;5251;52.112;8.606;2023-07-31T07:06:17;7.18;;;4.50;;
10410;SDS011;5251;52.112;8.606;2023-07-31T07:08:43;6.63;;;4.10;;
10410;SDS011;5251;52.112;8.606;2023-07-31T07:11:08;7.65;;;4.47;;
10410;SDS011;5251;52.112;8.606;2023-07-31T07:13:34;6.40;;;4.20;;
10410;SDS011;5251;52.112;8.606;2023-07-31T07:15:59;8.20;;;4.20;;
10410;SDS011;5251;52.112;8.606;2023-07-31T07:18:25;4.60;;;3.55;;
10410;SDS011;5251;52.112;8.606;2023-07-31T07:20:51;7.80;;;4.55;;
10410;SDS011;5251;52.112;8.606;2023-07-31T07:23:18;5.47;;;3.70;;
10410;SDS011;5251;52.112;8.606;2023-07-31T07:25:44;6.32;;;3.90;;
10410;SDS011;5251;52.112;8.606;2023-07-31T07:28:11;7.35;;;3.75;;
10410;SDS011;5251;52.112;8.606;2023-07-31T07:30:37;5.90;;;4.03;;
10410;SDS011;5251;52.112;8.606;2023-07-31T07:33:02;6.72;;;3.92;;
10410;SDS011;5251;52.112;8.606;2023-07-31T07:35:28;7.18;;;4.10;;
10410;SDS011;5251;52.112;8.606;2023-07-31T07:37:55;7.00;;;4.10;;
10410;SDS011;5251;52.112;8.606;2023-07-31T07:40:21;5.32;;;3.92;;
10410;SDS011;5251;52.112;8.606;2023-07-31T07:42:49;8.68;;;4.53;;
10410;SDS011;5251;52.112;8.606;2023-07-31T07:45:15;5.72;;;4.05;;
10410;SDS011;5251;52.112;8.606;2023-07-31T07:47:41;9.00;;;4.28;;
10410;SDS011;5251;52.112;8.606;2023-07-31T07:50:07;7.30;;;4.30;;
10410;SDS011;5251;52.112;8.606;2023-07-31T07:52:33;6.03;;;4.15;;
10410;SDS011;5251;52.112;8.606;2023-07-31T07:54:59;6.18;;;3.88;;
10410;SDS011;5251;52.112;8.606;2023-07-31T07:57:25;5.88;;;4.05;;
10410;SDS011;5251;52.112;8.606;2023-07-31T07:59:51;7.57;;;3.65;;
10410;SDS011;5251;52.112;8.606;2023-07-31T08:02:16;6.93;;;3.85;;
10410;SDS011;5251;52.112;8.606;2023-07-31T08:04:42;5.75;;;4.05;;
10410;SDS011;5251;52.112;8.606;2023-07-31T08:07:08;8.02;;;3.67;;
10410;SDS011;5251;52.112;8.606;2023-07-31T08:09:36;6.60;;;4.10;;
10410;SDS011;5251;52.112;8.606;2023-07-31T08:12:01;5.35;;;3.30;;
10410;SDS011;5251;52.112;8.606;2023-07-31T08:14:28;6.13;;;3.63;;
10410;SDS011;5251;52.112;8.606;2023-07-31T08:16:55;4.70;;;3.55;;
10410;SDS011;5251;52.112;8.606;2023-07-31T08:19:20;5.07;;;3.60;;
10410;SDS011;5251;52.112;8.606;2023-07-31T08:21:46;3.35;;;2.95;;
10410;SDS011;5251;52.112;8.606;2023-07-31T08:24:12;3.88;;;2.92;;
10410;SDS011;5251;52.112;8.606;2023-07-31T08:26:38;5.13;;;2.83;;
10410;SDS011;5251;52.112;8.606;2023-07-31T08:29:03;4.30;;;2.78;;
10410;SDS011;5251;52.112;8.606;2023-07-31T08:31:29;2.80;;;2.22;;
10410;SDS011;5251;52.112;8.606;2023-07-31T08:33:55;3.47;;;2.40;;
10410;SDS011;5251;52.112;8.606;2023-07-31T08:36:21;2.75;;;2.28;;
10410;SDS011;5251;52.112;8.606;2023-07-31T08:38:47;4.40;;;2.20;;
10410;SDS011;5251;52.112;8.606;2023-07-31T08:41:12;2.38;;;2.10;;
10410;SDS011;5251;52.112;8.606;2023-07-31T08:43:38;2.63;;;2.10;;
10410;SDS011;5251;52.112;8.606;2023-07-31T08:46:04;2.70;;;2.22;;
10410;SDS011;5251;52.112;8.606;2023-07-31T08:48:30;2.40;;;2.20;;
10410;SDS011;5251;52.112;8.606;2023-07-31T08:50:57;3.00;;;2.70;;
10410;SDS011;5251;52.112;8.606;2023-07-31T08:53:23;2.67;;;2.33;;
10410;SDS011;5251;52.112;8.606;2023-07-31T08:55:49;2.88;;;2.45;;
10410;SDS011;5251;52.112;8.606;2023-07-31T08:58:15;3.80;;;2.25;;
10410;SDS011;5251;52.112;8.606;2023-07-31T09:00:43;3.45;;;2.85;;
10410;SDS011;5251;52.112;8.606;2023-07-31T09:03:14;3.03;;;2.33;;
10410;SDS011;5251;52.112;8.606;2023-07-31T09:05:43;2.40;;;2.15;;
10410;SDS011;5251;52.112;8.606;2023-07-31T09:08:10;2.72;;;2.03;;
10410;SDS011;5251;52.112;8.606;2023-07-31T09:10:40;2.50;;;2.30;;
10410;SDS011;5251;52.112;8.606;2023-07-31T09:13:11;2.67;;;2.03;;
10410;SDS011;5251;52.112;8.606;2023-07-31T09:15:40;2.95;;;2.17;;
10410;SDS011;5251;52.112;8.606;2023-07-31T09:18:08;2.50;;;2.00;;
10410;SDS011;5251;52.112;8.606;2023-07-31T09:20:34;2.10;;;1.92;;
10410;SDS011;5251;52.112;8.606;2023-07-31T09:23:07;2.45;;;2.10;;
10410;SDS011;5251;52.112;8.606;2023-07-31T09:25:34;3.60;;;2.15;;
10410;SDS011;5251;52.112;8.606;2023-07-31T09:28:01;1.83;;;1.73;;
10410;SDS011;5251;52.112;8.606;2023-07-31T09:30:43;2.22;;;1.90;;
10410;SDS011;5251;52.112;8.606;2023-07-31T09:33:13;2.17;;;1.98;;
10410;SDS011;5251;52.112;8.606;2023-07-31T09:35:39;2.30;;;2.10;;
10410;SDS011;5251;52.112;8.606;2023-07-31T09:38:12;2.30;;;2.10;;
10410;SDS011;5251;52.112;8.606;2023-07-31T09:43:09;4.32;;;2.30;;
10410;SDS011;5251;52.112;8.606;2023-07-31T09:45:40;2.17;;;1.90;;
10410;SDS011;5251;52.112;8.606;2023-07-31T09:48:07;2.75;;;1.80;;
10410;SDS011;5251;52.112;8.606;2023-07-31T09:50:37;2.35;;;1.80;;
10410;SDS011;5251;52.112;8.606;2023-07-31T09:53:05;3.42;;;1.98;;
10410;SDS011;5251;52.112;8.606;2023-07-31T09:55:31;2.55;;;1.92;;
10410;SDS011;5251;52.112;8.606;2023-07-31T09:57:57;2.50;;;1.98;;
10410;SDS011;5251;52.112;8.606;2023-07-31T10:00:23;2.83;;;1.88;;
10410;SDS011;5251;52.112;8.606;2023-07-31T10:02:53;2.38;;;2.17;;
10410;SDS011;5251;52.112;8.606;2023-07-31T10:05:22;2.55;;;1.98;;
10410;SDS011;5251;52.112;8.606;2023-07-31T10:07:53;3.10;;;2.25;;
10410;SDS011;5251;52.112;8.606;2023-07-31T10:10:20;2.22;;;1.80;;
10410;SDS011;5251;52.112;8.606;2023-07-31T10:12:50;2.22;;;1.95;;
10410;SDS011;5251;52.112;8.606;2023-07-31T10:15:18;2.90;;;1.85;;
10410;SDS011;5251;52.112;8.606;2023-07-31T10:17:44;2.45;;;1.90;;
10410;SDS011;5251;52.112;8.606;2023-07-31T10:20:11;2.67;;;2.15;;
10410;SDS011;5251;52.112;8.606;2023-07-31T10:22:37;1.75;;;1.65;;
10410;SDS011;5251;52.112;8.606;2023-07-31T10:25:03;1.60;;;1.50;;
10410;SDS011;5251;52.112;8.606;2023-07-31T10:27:32;2.03;;;1.60;;
10410;SDS011;5251;52.112;8.606;2023-07-31T10:30:04;1.60;;;1.50;;
10410;SDS011;5251;52.112;8.606;2023-07-31T10:32:32;2.03;;;1.60;;
10410;SDS011;5251;52.112;8.606;2023-07-31T10:34:58;2.55;;;1.63;;
10410;SDS011;5251;52.112;8.606;2023-07-31T10:37:27;1.58;;;1.40;;
10410;SDS011;5251;52.112;8.606;2023-07-31T10:40:06;1.38;;;1.27;;
10410;SDS011;5251;52.112;8.606;2023-07-31T10:45:03;4.47;;;1.30;;
10410;SDS011;5251;52.112;8.606;2023-07-31T10:47:31;2.95;;;1.40;;
10410;SDS011;5251;52.112;8.606;2023-07-31T10:50:16;1.50;;;1.25;;
10410;SDS011;5251;52.112;8.606;2023-07-31T10:52:50;1.08;;;1.00;;
10410;SDS011;5251;52.112;8.606;2023-07-31T10:58:07;1.02;;;1.02;;
10410;SDS011;5251;52.112;8.606;2023-07-31T11:00:36;3.55;;;1.20;;
10410;SDS011;5251;52.112;8.606;2023-07-31T11:03:07;1.10;;;1.10;;
10410;SDS011;5251;52.112;8.606;2023-07-31T11:05:43;1.27;;;1.17;;
10410;SDS011;5251;52.112;8.606;2023-07-31T11:08:12;1.27;;;1.17;;
10410;SDS011;5251;52.112;8.606;2023-07-31T11:10:37;1.40;;;1.30;;
10410;SDS011;5251;52.112;8.606;2023-07-31T11:13:06;1.65;;;1.20;;
10410;SDS011;5251;52.112;8.606;2023-07-31T11:15:31;2.33;;;1.15;;
10410;SDS011;5251;52.112;8.606;2023-07-31T11:17:59;1.40;;;1.30;;
10410;SDS011;5251;52.112;8.606;2023-07-31T11:20:29;1.30;;;1.20;;
10410;SDS011;5251;52.112;8.606;2023-07-31T11:22:57;1.63;;;1.30;;
10410;SDS011;5251;52.112;8.606;2023-07-31T11:25:24;2.03;;;1.30;;
10410;SDS011;5251;52.112;8.606;2023-07-31T11:27:50;2.40;;;1.20;;
10410;SDS011;5251;52.112;8.606;2023-07-31T11:30:18;1.05;;;0.95;;
10410;SDS011;5251;52.112;8.606;2023-07-31T11:32:45;1.15;;;1.05;;
10410;SDS011;5251;52.112;8.606;2023-07-31T11:35:14;1.13;;;1.08;;
10410;SDS011;5251;52.112;8.606;2023-07-31T11:37:40;1.30;;;1.20;;
10410;SDS011;5251;52.112;8.606;2023-07-31T11:40:07;1.30;;;1.20;;
10410;SDS011;5251;52.112;8.606;2023-07-31T11:42:34;1.40;;;1.30;;
10410;SDS011;5251;52.112;8.606;2023-07-31T11:45:07;1.40;;;1.30;;
10410;SDS011;5251;52.112;8.606;2023-07-31T11:47:35;1.27;;;1.10;;
10410;SDS011;5251;52.112;8.606;2023-07-31T11:50:03;1.30;;;1.20;;
10410;SDS011;5251;52.112;8.606;2023-07-31T11:52:30;1.38;;;1.10;;
10410;SDS011;5251;52.112;8.606;2023-07-31T11:55:00;1.35;;;1.25;;
10410;SDS011;5251;52.112;8.606;2023-07-31T11:57:26;1.20;;;1.20;;
10410;SDS011;5251;52.112;8.606;2023-07-31T11:59:53;1.30;;;1.20;;
10410;SDS011;5251;52.112;8.606;2023-07-31T12:02:19;1.13;;;1.13;;
10410;SDS011;5251;52.112;8.606;2023-07-31T12:04:46;1.17;;;1.08;;
10410;SDS011;5251;52.112;8.606;2023-07-31T12:07:12;1.05;;;1.00;;
10410;SDS011;5251;52.112;8.606;2023-07-31T12:09:38;2.00;;;1.30;;
10410;SDS011;5251;52.112;8.606;2023-07-31T12:12:07;1.23;;;1.10;;
10410;SDS011;5251;52.112;8.606;2023-07-31T12:14:34;1.40;;;1.13;;
10410;SDS011;5251;52.112;8.606;2023-07-31T12:17:09;1.75;;;1.20;;
10410;SDS011;5251;52.112;8.606;2023-07-31T12:19:34;1.02;;;0.90;;
10410;SDS011;5251;52.112;8.606;2023-07-31T12:22:00;2.00;;;1.15;;
10410;SDS011;5251;52.112;8.606;2023-07-31T12:24:26;1.23;;;1.13;;
10410;SDS011;5251;52.112;8.606;2023-07-31T12:26:52;1.20;;;1.10;;
10410;SDS011;5251;52.112;8.606;2023-07-31T12:29:19;1.20;;;1.10;;
10410;SDS011;5251;52.112;8.606;2023-07-31T12:31:45;1.00;;;0.90;;
10410;SDS011;5251;52.112;8.606;2023-07-31T12:34:17;1.05;;;1.05;;
10410;SDS011;5251;52.112;8.606;2023-07-31T12:36:45;0.95;;;0.90;;
10410;SDS011;5251;52.112;8.606;2023-07-31T12:39:12;1.10;;;1.00;;
10410;SDS011;5251;52.112;8.606;2023-07-31T12:41:37;1.00;;;1.00;;
10410;SDS011;5251;52.112;8.606;2023-07-31T12:44:03;2.15;;;1.00;;
10410;SDS011;5251;52.112;8.606;2023-07-31T12:46:29;0.98;;;0.98;;
10410;SDS011;5251;52.112;8.606;2023-07-31T12:48:54;1.70;;;1.10;;
10410;SDS011;5251;52.112;8.606;2023-07-31T12:51:20;1.23;;;1.00;;
10410;SDS011;5251;52.112;8.606;2023-07-31T12:53:46;1.65;;;0.95;;
10410;SDS011;5251;52.112;8.606;2023-07-31T12:56:11;1.30;;;1.13;;
10410;SDS011;5251;52.112;8.606;2023-07-31T12:58:37;1.27;;;1.17;;
10410;SDS011;5251;52.112;8.606;2023-07-31T13:01:02;1.30;;;1.20;;
10410;SDS011;5251;52.112;8.606;2023-07-31T13:03:28;1.50;;;1.40;;
10410;SDS011;5251;52.112;8.606;2023-07-31T13:05:54;2.38;;;1.75;;
10410;SDS011;5251;52.112;8.606;2023-07-31T13:08:20;2.60;;;1.90;;
10410;SDS011;5251;52.112;8.606;2023-07-31T13:10:45;2.30;;;2.10;;
10410;SDS011;5251;52.112;8.606;2023-07-31T13:13:11;2.60;;;2.40;;
10410;SDS011;5251;52.112;8.606;2023-07-31T13:15:37;3.40;;;2.88;;
10410;SDS011;5251;52.112;8.606;2023-07-31T13:18:02;3.50;;;3.20;;
10410;SDS011;5251;52.112;8.606;2023-07-31T13:20:28;3.53;;;3.22;;
10410;SDS011;5251;52.112;8.606;2023-07-31T13:22:53;4.13;;;3.83;;
10410;SDS011;5251;52.112;8.606;2023-07-31T13:25:19;4.10;;;3.70;;
10410;SDS011;5251;52.112;8.606;2023-07-31T13:27:45;4.38;;;3.97;;
10410;SDS011;5251;52.112;8.606;2023-07-31T13:30:10;3.80;;;3.50;;
10410;SDS011;5251;52.112;8.606;2023-07-31T13:32:36;3.95;;;3.50;;
10410;SDS011;5251;52.112;8.606;2023-07-31T13:35:04;4.28;;;3.70;;
10410;SDS011;5251;52.112;8.606;2023-07-31T13:37:33;4.88;;;3.70;;
10410;SDS011;5251;52.112;8.606;2023-07-31T13:39:59;3.28;;;2.97;;
10410;SDS011;5251;52.112;8.606;2023-07-31T13:42:25;3.28;;;2.97;;
10410;SDS011;5251;52.112;8.606;2023-07-31T13:44:53;3.35;;;3.08;;
10410;SDS011;5251;52.112;8.606;2023-07-31T13:47:19;3.97;;;2.50;;
10410;SDS011;5251;52.112;8.606;2023-07-31T13:49:44;3.88;;;2.88;;
10410;SDS011;5251;52.112;8.606;2023-07-31T13:52:10;2.97;;;2.78;;
10410;SDS011;5251;52.112;8.606;2023-07-31T13:54:35;2.67;;;2.47;;
10410;SDS011;5251;52.112;8.606;2023-07-31T13:57:02;3.33;;;2.58;;
10410;SDS011;5251;52.112;8.606;2023-07-31T13:59:27;2.75;;;2.47;;
10410;SDS011;5251;52.112;8.606;2023-07-31T14:01:53;2.72;;;2.50;;
10410;SDS011;5251;52.112;8.606;2023-07-31T14:04:18;4.85;;;2.60;;
10410;SDS011;5251;52.112;8.606;2023-07-31T14:06:44;2.42;;;2.22;;
10410;SDS011;5251;52.112;8.606;2023-07-31T14:09:10;3.72;;;2.70;;
10410;SDS011;5251;52.112;8.606;2023-07-31T14:11:35;3.20;;;2.90;;
10410;SDS011;5251;52.112;8.606;2023-07-31T14:14:01;3.15;;;2.92;;
10410;SDS011;5251;52.112;8.606;2023-07-31T14:16:27;2.85;;;2.60;;
10410;SDS011;5251;52.112;8.606;2023-07-31T14:18:53;3.22;;;2.92;;
10410;SDS011;5251;52.112;8.606;2023-07-31T14:21:19;3.65;;;2.88;;
10410;SDS011;5251;52.112;8.606;2023-07-31T14:23:45;4.30;;;3.10;;
10410;SDS011;5251;52.112;8.606;2023-07-31T14:26:10;3.10;;;2.80;;
10410;SDS011;5251;52.112;8.606;2023-07-31T14:28:36;3.60;;;3.25;;
10410;SDS011;5251;52.112;8.606;2023-07-31T14:31:02;3.47;;;3.00;;
10410;SDS011;5251;52.112;8.606;2023-07-31T14:33:27;2.80;;;2.60;;
10410;SDS011;5251;52.112;8.606;2023-07-31T14:35:53;3.45;;;2.92;;
10410;SDS011;5251;52.112;8.606;2023-07-31T14:38:19;2.90;;;2.70;;
10410;SDS011;5251;52.112;8.606;2023-07-31T14:40:44;3.47;;;2.90;;
10410;SDS011;5251;52.112;8.606;2023-07-31T14:43:10;3.78;;;2.97;;
10410;SDS011;5251;52.112;8.606;2023-07-31T14:45:36;5.05;;;3.03;;
10410;SDS011;5251;52.112;8.606;2023-07-31T14:48:01;3.28;;;2.97;;
10410;SDS011;5251;52.112;8.606;2023-07-31T14:50:27;4.18;;;2.97;;
10410;SDS011;5251;52.112;8.606;2023-07-31T14:52:53;3.40;;;3.10;;
10410;SDS011;5251;52.112;8.606;2023-07-31T14:55:19;5.07;;;3.00;;
10410;SDS011;5251;52.112;8.606;2023-07-31T14:57:45;3.22;;;2.92;;
10410;SDS011;5251;52.112;8.606;2023-07-31T15:00:10;3.58;;;3.20;;
10410;SDS011;5251;52.112;8.606;2023-07-31T15:02:37;4.50;;;3.30;;
10410;SDS011;5251;52.112;8.606;2023-07-31T15:05:03;3.20;;;2.90;;
10410;SDS011;5251;52.112;8.606;2023-07-31T15:07:28;3.40;;;3.10;;
10410;SDS011;5251;52.112;8.606;2023-07-31T15:09:54;5.68;;;3.35;;
10410;SDS011;5251;52.112;8.606;2023-07-31T15:12:20;3.60;;;3.30;;
10410;SDS011;5251;52.112;8.606;2023-07-31T15:14:45;3.45;;;3.15;;